Appleton, New York
Current Conditions -  °F | °C
As of 6:53 PM on Wednesday 28 Jan 2015 (Local Time) from KIAG Reporting Station
Few Clouds Few Clouds  
Wind Chill: -14°   Ceiling: Unl
Heat Index: -9°   Visibility: 10mi
Dew Point: -13°   Wind: 6mph
Humidity: 71%   Direction: 180°S
Pressure: 30.3"   Gusts: NA
Location:  43.33°N, 78.65°W
Report Text: KIAG 282353Z 18005KT 10SM FEW250 M09/M13 A3030 RMK AO2 SLP287 4/001 T10891133 11044 21089 50005
Loading
Personal Weather Stations






























Interactive Weather Map New forecast layout! Learn more

10-Day Weather Forecast

Advertisements
Track Severe Weather on mobile